Time;durP1;ratioP1;P1;durP2;ratioP2;P2;SDS_P1;SDS_P2;PMS_P1;PMS_P2;Temp;Humidity;BMP_temperature;BMP_pressure;BME280_temperature;BME280_humidity;BME280_pressure;Samples;Min_cycle;Max_cycle;Signal;HPM_P1;HPM_P2
2023/08/25 00:01:24;;;;;;;5.80;3.75;;;;;;;;;;4940054;29;20286;-51
2023/08/25 00:03:52;;;;;;;5.18;3.35;;;;;;;;;;4939584;29;20216;-54
2023/08/25 00:06:19;;;;;;;5.70;3.10;;;;;;;;;;4939661;29;20226;-50
2023/08/25 00:08:46;;;;;;;5.45;3.25;;;;;;;;;;4939570;29;20208;-50
2023/08/25 00:11:13;;;;;;;5.97;3.55;;;;;;;;;;4939214;29;20215;-51
2023/08/25 00:13:41;;;;;;;7.38;3.95;;;;;;;;;;4939254;29;20565;-51
2023/08/25 00:16:09;;;;;;;4.25;3.80;;;;;;;;;;4939436;29;20207;-53
2023/08/25 00:18:37;;;;;;;4.65;3.58;;;;;;;;;;4939622;29;20208;-54
2023/08/25 00:21:04;;;;;;;4.97;3.38;;;;;;;;;;4946572;29;20227;-52
2023/08/25 00:23:31;;;;;;;5.72;4.22;;;;;;;;;;4941884;29;20208;-49
2023/08/25 00:25:59;;;;;;;6.85;4.70;;;;;;;;;;4939035;29;20570;-49
2023/08/25 00:28:26;;;;;;;6.10;3.78;;;;;;;;;;4939203;29;20212;-51
2023/08/25 00:30:54;;;;;;;6.82;3.40;;;;;;;;;;4937761;29;20215;-50
2023/08/25 00:33:22;;;;;;;5.03;3.85;;;;;;;;;;4937980;29;20208;-50
2023/08/25 00:35:49;;;;;;;8.30;3.50;;;;;;;;;;4939181;29;20204;-50
2023/08/25 00:38:16;;;;;;;5.65;3.83;;;;;;;;;;4937455;29;20215;-53
2023/08/25 00:40:43;;;;;;;5.75;3.92;;;;;;;;;;4939379;29;20243;-52
2023/08/25 00:43:12;;;;;;;4.93;4.18;;;;;;;;;;4938966;29;20232;-50
2023/08/25 00:45:41;;;;;;;9.93;4.00;;;;;;;;;;4937411;29;20210;-49
2023/08/25 00:48:10;;;;;;;4.40;4.00;;;;;;;;;;4937588;29;20215;-51
2023/08/25 00:50:38;;;;;;;5.28;4.05;;;;;;;;;;4938429;29;20208;-49
2023/08/25 00:53:06;;;;;;;4.82;3.72;;;;;;;;;;4938280;29;20208;-49
2023/08/25 00:55:34;;;;;;;5.82;3.97;;;;;;;;;;4937313;29;20236;-53
2023/08/25 00:58:05;;;;;;;7.82;4.20;;;;;;;;;;4938694;29;20212;-49
2023/08/25 01:00:33;;;;;;;6.28;4.32;;;;;;;;;;4937287;29;20235;-49
2023/08/25 01:03:01;;;;;;;7.10;4.25;;;;;;;;;;4921746;29;20208;-49
2023/08/25 01:05:28;;;;;;;10.60;4.30;;;;;;;;;;4937007;29;20204;-53
2023/08/25 01:07:57;;;;;;;6.05;4.43;;;;;;;;;;4937175;29;20219;-51
2023/08/25 01:10:35;;;;;;;5.50;4.10;;;;;;;;;;4938228;29;20216;-51
2023/08/25 01:13:26;;;;;;;6.60;4.35;;;;;;;;;;4938656;29;20578;-54
2023/08/25 01:15:54;;;;;;;7.00;4.45;;;;;;;;;;4945992;29;20637;-51
2023/08/25 01:18:30;;;;;;;6.43;4.20;;;;;;;;;;4955696;28;20230;-50
2023/08/25 01:20:59;;;;;;;9.00;4.60;;;;;;;;;;4921819;29;20299;-49
2023/08/25 01:23:33;;;;;;;5.60;4.20;;;;;;;;;;4921022;29;20211;-51
2023/08/25 01:26:01;;;;;;;8.68;4.03;;;;;;;;;;4937963;29;20208;-51
2023/08/25 01:28:28;;;;;;;6.97;4.00;;;;;;;;;;4952726;28;20666;-49
2023/08/25 01:30:56;;;;;;;5.68;3.70;;;;;;;;;;4938080;29;20212;-51
2023/08/25 01:33:26;;;;;;;7.43;3.65;;;;;;;;;;4938114;29;20212;-52
2023/08/25 01:36:05;;;;;;;4.72;3.35;;;;;;;;;;4936745;29;20208;-49
2023/08/25 01:38:39;;;;;;;6.07;3.72;;;;;;;;;;4921029;29;20638;-51
2023/08/25 01:41:27;;;;;;;7.55;3.95;;;;;;;;;;4936899;29;20220;-50
2023/08/25 01:43:55;;;;;;;6.13;3.97;;;;;;;;;;4937908;29;20215;-53
2023/08/25 01:46:22;;;;;;;7.53;4.22;;;;;;;;;;4948409;29;20728;-49
2023/08/25 01:48:53;;;;;;;4.75;3.72;;;;;;;;;;4921118;29;20208;-51
2023/08/25 01:51:20;;;;;;;12.43;4.18;;;;;;;;;;4952578;29;20215;-50
2023/08/25 01:53:56;;;;;;;6.22;4.30;;;;;;;;;;4937775;29;20204;-51
2023/08/25 01:56:23;;;;;;;5.47;3.88;;;;;;;;;;4952424;29;20538;-53
2023/08/25 01:58:51;;;;;;;8.15;3.90;;;;;;;;;;4936269;29;20216;-49
2023/08/25 02:01:19;;;;;;;5.65;3.88;;;;;;;;;;4937210;29;20614;-58
2023/08/25 02:03:47;;;;;;;6.45;4.03;;;;;;;;;;4937054;29;20302;-49
2023/08/25 02:06:14;;;;;;;8.93;3.38;;;;;;;;;;4935671;29;20208;-52
2023/08/25 02:08:44;;;;;;;7.30;3.08;;;;;;;;;;4937670;29;20208;-50
2023/08/25 02:11:11;;;;;;;6.13;3.55;;;;;;;;;;4937288;29;20231;-49
2023/08/25 02:13:38;;;;;;;6.03;3.90;;;;;;;;;;4937398;29;20211;-52
2023/08/25 02:16:05;;;;;;;4.50;3.45;;;;;;;;;;4947860;28;20604;-53
2023/08/25 02:18:33;;;;;;;6.00;4.43;;;;;;;;;;4937993;29;20208;-56
2023/08/25 02:21:00;;;;;;;7.32;4.15;;;;;;;;;;4936078;29;20224;-50
2023/08/25 02:23:27;;;;;;;6.47;3.78;;;;;;;;;;4937093;29;20204;-49
2023/08/25 02:25:54;;;;;;;5.63;3.80;;;;;;;;;;4936920;29;20207;-55
2023/08/25 02:28:22;;;;;;;6.75;4.22;;;;;;;;;;4935646;29;20208;-50
2023/08/25 02:30:49;;;;;;;8.00;3.97;;;;;;;;;;4935871;29;20216;-50
2023/08/25 02:33:17;;;;;;;7.72;4.03;;;;;;;;;;4936896;29;20211;-50
2023/08/25 02:35:44;;;;;;;6.38;4.28;;;;;;;;;;4936126;29;20210;-52
2023/08/25 02:38:11;;;;;;;6.57;4.43;;;;;;;;;;4936660;29;20212;-54
2023/08/25 02:40:38;;;;;;;5.00;3.75;;;;;;;;;;4936798;29;20219;-52
2023/08/25 02:43:07;;;;;;;4.57;3.70;;;;;;;;;;4951484;28;20200;-56
2023/08/25 02:45:35;;;;;;;6.38;4.25;;;;;;;;;;4941853;29;20208;-50
2023/08/25 02:48:03;;;;;;;5.30;3.80;;;;;;;;;;4962676;28;20700;-49
2023/08/25 02:50:31;;;;;;;6.63;4.03;;;;;;;;;;4970691;28;20216;-49
2023/08/25 02:52:58;;;;;;;5.90;4.47;;;;;;;;;;4955810;28;20230;-51
2023/08/25 02:55:25;;;;;;;6.55;4.22;;;;;;;;;;4955541;28;20203;-49
2023/08/25 02:57:52;;;;;;;9.85;4.63;;;;;;;;;;4954121;28;20512;-50
2023/08/25 03:00:23;;;;;;;6.00;4.38;;;;;;;;;;4969339;28;20230;-49
2023/08/25 03:02:51;;;;;;;7.85;4.35;;;;;;;;;;4953274;29;20195;-49
2023/08/25 03:05:21;;;;;;;6.45;4.72;;;;;;;;;;4953795;28;20210;-50
2023/08/25 03:07:53;;;;;;;8.25;4.90;;;;;;;;;;4968223;28;20227;-49
2023/08/25 03:10:21;;;;;;;6.07;4.57;;;;;;;;;;4984355;28;20207;-53
2023/08/25 03:12:49;;;;;;;6.20;4.40;;;;;;;;;;4952286;29;20211;-50
2023/08/25 03:15:16;;;;;;;5.70;4.40;;;;;;;;;;4949019;29;20235;-50
2023/08/25 03:17:44;;;;;;;5.63;4.50;;;;;;;;;;4957753;28;20236;-49
2023/08/25 03:20:11;;;;;;;6.45;4.75;;;;;;;;;;4934637;29;20227;-50
2023/08/25 03:22:38;;;;;;;9.43;4.35;;;;;;;;;;4934645;29;20203;-52
2023/08/25 03:25:07;;;;;;;5.55;4.20;;;;;;;;;;4934687;29;20204;-53
2023/08/25 03:27:37;;;;;;;5.93;4.35;;;;;;;;;;4934926;29;20582;-49
2023/08/25 03:30:06;;;;;;;5.60;4.38;;;;;;;;;;4936586;29;20231;-49
2023/08/25 03:32:33;;;;;;;5.70;4.57;;;;;;;;;;4950448;29;20327;-53
2023/08/25 03:35:01;;;;;;;7.53;4.78;;;;;;;;;;4948908;29;20208;-52
2023/08/25 03:37:28;;;;;;;5.40;4.10;;;;;;;;;;4951827;29;20204;-49
2023/08/25 03:39:55;;;;;;;5.70;4.22;;;;;;;;;;4981698;28;20641;-49
2023/08/25 03:42:25;;;;;;;5.38;4.28;;;;;;;;;;4960887;28;20324;-53
2023/08/25 03:44:52;;;;;;;8.88;5.00;;;;;;;;;;4949631;29;20259;-57
2023/08/25 03:47:20;;;;;;;5.85;4.70;;;;;;;;;;4953087;29;20211;-55
2023/08/25 03:49:49;;;;;;;6.85;4.78;;;;;;;;;;4951696;29;20199;-57
2023/08/25 03:52:16;;;;;;;8.02;4.53;;;;;;;;;;4954892;28;20606;-49
2023/08/25 03:54:43;;;;;;;6.60;4.32;;;;;;;;;;4953436;28;20246;-55
2023/08/25 03:57:11;;;;;;;9.13;4.93;;;;;;;;;;4953312;29;20200;-51
2023/08/25 03:59:38;;;;;;;9.10;4.30;;;;;;;;;;4951838;29;20199;-49
2023/08/25 04:02:05;;;;;;;7.43;4.28;;;;;;;;;;4944875;28;20246;-51
2023/08/25 04:04:32;;;;;;;12.38;4.75;;;;;;;;;;4934515;28;21209;-53
2023/08/25 04:07:00;;;;;;;11.90;5.18;;;;;;;;;;4953054;29;20288;-50
2023/08/25 04:09:27;;;;;;;9.00;4.32;;;;;;;;;;4952822;29;20219;-49
2023/08/25 04:11:57;;;;;;;7.78;4.68;;;;;;;;;;4969150;28;20771;-51
2023/08/25 04:14:25;;;;;;;6.63;4.72;;;;;;;;;;4952835;29;20712;-51
2023/08/25 04:16:52;;;;;;;7.78;4.38;;;;;;;;;;4952779;28;20231;-51
2023/08/25 04:19:21;;;;;;;8.63;4.80;;;;;;;;;;4968455;28;20646;-50
2023/08/25 04:21:50;;;;;;;9.32;5.05;;;;;;;;;;4968949;28;20266;-49
2023/08/25 04:24:18;;;;;;;9.73;4.63;;;;;;;;;;4952992;29;20231;-49
2023/08/25 04:26:46;;;;;;;7.95;4.45;;;;;;;;;;4968654;28;20278;-49
2023/08/25 04:29:13;;;;;;;6.05;4.00;;;;;;;;;;4957133;28;20712;-48
2023/08/25 04:31:41;;;;;;;6.78;3.95;;;;;;;;;;4956018;28;20228;-49
2023/08/25 04:34:13;;;;;;;4.68;4.00;;;;;;;;;;4988752;28;20219;-54
2023/08/25 04:36:40;;;;;;;8.85;4.68;;;;;;;;;;4944651;29;20243;-50
2023/08/25 04:39:07;;;;;;;9.40;4.68;;;;;;;;;;4956789;29;20235;-49
2023/08/25 04:41:36;;;;;;;9.85;4.68;;;;;;;;;;4955647;29;20243;-50
2023/08/25 04:44:04;;;;;;;7.57;4.55;;;;;;;;;;4955225;29;20223;-49
2023/08/25 04:46:34;;;;;;;7.75;4.35;;;;;;;;;;4956006;28;20677;-49
2023/08/25 04:49:01;;;;;;;18.05;12.73;;;;;;;;;;4956277;28;20227;-48
2023/08/25 04:51:28;;;;;;;10.93;5.10;;;;;;;;;;4954119;29;20239;-48
2023/08/25 04:53:55;;;;;;;8.25;4.63;;;;;;;;;;4954979;29;20224;-48
2023/08/25 04:56:23;;;;;;;8.10;4.72;;;;;;;;;;4955848;29;20232;-48
2023/08/25 04:58:50;;;;;;;7.40;5.05;;;;;;;;;;4947339;29;20628;-48
2023/08/25 05:01:17;;;;;;;7.10;4.60;;;;;;;;;;4950029;29;20238;-47
2023/08/25 05:03:48;;;;;;;7.07;4.53;;;;;;;;;;4971905;28;20255;-48
2023/08/25 05:06:17;;;;;;;11.63;4.80;;;;;;;;;;4956751;28;20231;-48
2023/08/25 05:08:44;;;;;;;8.57;4.32;;;;;;;;;;4971808;28;20223;-49
2023/08/25 05:11:12;;;;;;;9.15;4.68;;;;;;;;;;4961074;28;20417;-49
2023/08/25 05:13:39;;;;;;;6.75;4.57;;;;;;;;;;4969184;28;20236;-51
2023/08/25 05:16:09;;;;;;;10.82;4.82;;;;;;;;;;4952388;28;20235;-48
2023/08/25 05:18:46;;;;;;;6.90;4.57;;;;;;;;;;4987084;28;20204;-48
2023/08/25 05:21:14;;;;;;;11.95;4.82;;;;;;;;;;4988235;28;20223;-49
2023/08/25 05:23:46;;;;;;;6.90;4.32;;;;;;;;;;4988141;28;20207;-48
2023/08/25 05:26:15;;;;;;;10.30;4.05;;;;;;;;;;4988484;28;20207;-48
2023/08/25 05:28:52;;;;;;;5.82;3.92;;;;;;;;;;4988318;28;20679;-49
2023/08/25 05:31:19;;;;;;;8.68;4.38;;;;;;;;;;4956120;29;20211;-52
2023/08/25 05:34:02;;;;;;;7.63;4.60;;;;;;;;;;4956033;29;20621;-48
2023/08/25 05:36:36;;;;;;;6.93;4.70;;;;;;;;;;4956096;29;20198;-48
2023/08/25 05:39:03;;;;;;;8.00;4.57;;;;;;;;;;4987165;28;20242;-48
2023/08/25 05:41:33;;;;;;;6.05;4.15;;;;;;;;;;4987703;28;20227;-48
2023/08/25 05:44:01;;;;;;;8.82;4.75;;;;;;;;;;4956869;28;20215;-49
2023/08/25 05:46:30;;;;;;;9.43;5.00;;;;;;;;;;4955687;28;20214;-48
2023/08/25 05:48:57;;;;;;;8.00;4.63;;;;;;;;;;4954977;28;20222;-48
2023/08/25 05:51:25;;;;;;;12.32;4.70;;;;;;;;;;4971532;28;20711;-49
2023/08/25 05:53:52;;;;;;;8.27;4.45;;;;;;;;;;4972179;28;20207;-48
2023/08/25 05:56:19;;;;;;;6.35;4.22;;;;;;;;;;4956730;28;20200;-48
2023/08/25 05:58:46;;;;;;;6.68;3.92;;;;;;;;;;4956531;28;20683;-47
2023/08/25 06:01:14;;;;;;;9.20;4.43;;;;;;;;;;4956369;28;20238;-48
2023/08/25 06:03:41;;;;;;;7.50;4.40;;;;;;;;;;4956452;28;20227;-48
2023/08/25 06:06:08;;;;;;;9.02;4.40;;;;;;;;;;4955243;28;20691;-48
2023/08/25 06:08:35;;;;;;;10.13;4.47;;;;;;;;;;4937722;29;20208;-48
2023/08/25 06:11:03;;;;;;;7.80;4.18;;;;;;;;;;4937421;29;20291;-49
2023/08/25 06:13:30;;;;;;;6.57;3.75;;;;;;;;;;4937246;29;20208;-47
2023/08/25 06:15:57;;;;;;;8.13;4.30;;;;;;;;;;4937012;29;20658;-48
2023/08/25 06:18:24;;;;;;;9.95;3.80;;;;;;;;;;4937041;29;20748;-48
2023/08/25 06:20:54;;;;;;;8.10;3.80;;;;;;;;;;4937277;29;20213;-47
2023/08/25 06:23:21;;;;;;;7.35;4.22;;;;;;;;;;4937152;29;20228;-47
2023/08/25 06:25:49;;;;;;;6.97;3.67;;;;;;;;;;4936851;29;20207;-47
2023/08/25 06:28:16;;;;;;;6.20;3.45;;;;;;;;;;4936821;29;20208;-49
2023/08/25 06:30:43;;;;;;;7.78;3.80;;;;;;;;;;4937043;29;20212;-53
2023/08/25 06:33:10;;;;;;;9.90;4.15;;;;;;;;;;4937045;29;20212;-49
2023/08/25 06:35:38;;;;;;;10.23;3.53;;;;;;;;;;4955807;29;20211;-47
2023/08/25 06:38:05;;;;;;;6.55;3.13;;;;;;;;;;4956088;28;20203;-48
2023/08/25 06:40:36;;;;;;;7.07;3.65;;;;;;;;;;4955768;29;20239;-50
2023/08/25 06:43:03;;;;;;;8.80;3.50;;;;;;;;;;4955997;28;20211;-48
2023/08/25 06:45:31;;;;;;;10.27;3.45;;;;;;;;;;4955959;28;20204;-47
2023/08/25 06:47:58;;;;;;;3.92;2.72;;;;;;;;;;4955574;29;20199;-47
2023/08/25 06:50:25;;;;;;;5.35;3.20;;;;;;;;;;4955387;28;20668;-48
2023/08/25 06:52:52;;;;;;;5.22;3.55;;;;;;;;;;4955614;28;20266;-47
2023/08/25 06:55:20;;;;;;;6.18;3.25;;;;;;;;;;4955593;28;20203;-47
2023/08/25 06:57:47;;;;;;;4.78;3.00;;;;;;;;;;4955549;28;20223;-49
2023/08/25 07:00:17;;;;;;;5.57;2.92;;;;;;;;;;4955764;28;20207;-48
2023/08/25 07:02:44;;;;;;;5.68;3.08;;;;;;;;;;4955404;28;20722;-49
2023/08/25 07:05:13;;;;;;;6.00;3.15;;;;;;;;;;4955584;28;20294;-48
2023/08/25 07:07:40;;;;;;;5.20;2.92;;;;;;;;;;4955476;28;20207;-47
2023/08/25 07:10:08;;;;;;;5.22;2.75;;;;;;;;;;4955702;28;20215;-47
2023/08/25 07:12:35;;;;;;;5.15;3.00;;;;;;;;;;4955578;28;20214;-48
2023/08/25 07:15:02;;;;;;;4.45;2.92;;;;;;;;;;4955371;28;20207;-47
2023/08/25 07:17:29;;;;;;;5.50;2.70;;;;;;;;;;4950870;28;20755;-49
2023/08/25 07:19:57;;;;;;;5.47;3.45;;;;;;;;;;4938145;28;20576;-52
2023/08/25 07:22:24;;;;;;;4.05;2.65;;;;;;;;;;4937330;28;20783;-56
2023/08/25 07:24:53;;;;;;;4.93;3.22;;;;;;;;;;4941278;28;20203;-56
2023/08/25 07:27:20;;;;;;;5.35;3.08;;;;;;;;;;4936364;28;20207;-55
2023/08/25 07:29:47;;;;;;;3.58;2.50;;;;;;;;;;4950392;28;20215;-55
2023/08/25 07:32:15;;;;;;;7.63;2.90;;;;;;;;;;4935501;28;20208;-48
2023/08/25 07:34:44;;;;;;;6.00;2.72;;;;;;;;;;4943713;28;20215;-55
2023/08/25 07:37:12;;;;;;;4.63;2.75;;;;;;;;;;4946435;28;20751;-54
2023/08/25 07:39:39;;;;;;;4.30;2.25;;;;;;;;;;4949829;28;20240;-55
2023/08/25 07:42:07;;;;;;;4.40;2.95;;;;;;;;;;4942321;28;20707;-55
2023/08/25 07:44:36;;;;;;;5.85;2.90;;;;;;;;;;4961704;28;20223;-55
2023/08/25 07:47:04;;;;;;;4.97;2.60;;;;;;;;;;4949106;28;20219;-52
2023/08/25 07:49:32;;;;;;;7.55;2.78;;;;;;;;;;4961662;28;21001;-52
2023/08/25 07:51:59;;;;;;;6.07;2.78;;;;;;;;;;4953777;28;20215;-51
2023/08/25 07:54:27;;;;;;;5.45;2.90;;;;;;;;;;4945548;28;20268;-53
2023/08/25 07:56:54;;;;;;;4.05;2.72;;;;;;;;;;4934687;28;20240;-53
2023/08/25 07:59:22;;;;;;;5.10;3.15;;;;;;;;;;4950058;28;20231;-51
2023/08/25 08:01:50;;;;;;;4.90;3.15;;;;;;;;;;4937456;28;20220;-51
2023/08/25 08:04:17;;;;;;;3.90;2.58;;;;;;;;;;4949851;28;20216;-54
2023/08/25 08:06:45;;;;;;;4.82;2.83;;;;;;;;;;4943779;28;20223;-52
2023/08/25 08:09:12;;;;;;;3.92;2.53;;;;;;;;;;4951615;28;20223;-52
2023/08/25 08:11:39;;;;;;;5.35;3.47;;;;;;;;;;4939671;28;20227;-53
2023/08/25 08:14:06;;;;;;;7.70;4.20;;;;;;;;;;4945893;28;20215;-51
2023/08/25 08:16:33;;;;;;;6.38;4.10;;;;;;;;;;4937849;28;20232;-50
2023/08/25 08:19:05;;;;;;;9.00;3.70;;;;;;;;;;4949694;28;20219;-55
2023/08/25 08:21:32;;;;;;;6.68;3.53;;;;;;;;;;4939853;28;22211;-53
2023/08/25 08:24:00;;;;;;;5.30;2.78;;;;;;;;;;4945926;28;20279;-54
2023/08/25 08:26:29;;;;;;;5.43;3.22;;;;;;;;;;4952139;28;20222;-53
2023/08/25 08:28:57;;;;;;;8.45;2.90;;;;;;;;;;4964499;28;20298;-53
2023/08/25 08:31:25;;;;;;;7.93;2.70;;;;;;;;;;4955974;28;20568;-52
2023/08/25 08:33:52;;;;;;;4.68;2.63;;;;;;;;;;4946458;28;20251;-51
2023/08/25 08:36:20;;;;;;;3.97;2.60;;;;;;;;;;4948769;28;20730;-55
2023/08/25 08:38:47;;;;;;;4.15;2.42;;;;;;;;;;4966370;28;20324;-51
2023/08/25 08:41:15;;;;;;;7.32;2.70;;;;;;;;;;4944289;28;20314;-54
2023/08/25 08:43:45;;;;;;;5.90;3.05;;;;;;;;;;4943917;28;20326;-54
2023/08/25 08:46:15;;;;;;;4.57;2.75;;;;;;;;;;4938120;28;20215;-53
2023/08/25 08:48:44;;;;;;;5.40;2.85;;;;;;;;;;4944861;28;20227;-53
2023/08/25 08:51:13;;;;;;;3.95;2.47;;;;;;;;;;4954322;28;20231;-51
2023/08/25 08:53:41;;;;;;;6.35;2.80;;;;;;;;;;4963065;28;20267;-54
2023/08/25 08:56:09;;;;;;;7.43;2.72;;;;;;;;;;4952501;28;20216;-54
2023/08/25 08:58:37;;;;;;;5.10;2.35;;;;;;;;;;4941989;28;20719;-55
2023/08/25 09:01:05;;;;;;;5.47;2.17;;;;;;;;;;4952403;28;20232;-52
2023/08/25 09:03:34;;;;;;;3.35;2.33;;;;;;;;;;4972353;28;21741;-53
2023/08/25 09:06:03;;;;;;;2.72;1.90;;;;;;;;;;4939079;28;20572;-54
2023/08/25 09:08:32;;;;;;;3.83;1.85;;;;;;;;;;4942050;28;20246;-54
2023/08/25 09:11:03;;;;;;;3.85;2.22;;;;;;;;;;4946070;28;20239;-47
2023/08/25 09:13:33;;;;;;;6.45;2.17;;;;;;;;;;4941986;28;20234;-55
2023/08/25 09:16:10;;;;;;;2.95;1.90;;;;;;;;;;4940111;28;20754;-55
2023/08/25 09:18:39;;;;;;;5.10;2.22;;;;;;;;;;4955481;28;20314;-53
2023/08/25 09:21:17;;;;;;;6.07;2.53;;;;;;;;;;4946763;28;20231;-53
2023/08/25 09:23:56;;;;;;;4.47;1.90;;;;;;;;;;4942919;28;20249;-55
2023/08/25 09:26:24;;;;;;;3.47;1.85;;;;;;;;;;4936961;28;20275;-54
2023/08/25 09:28:53;;;;;;;3.30;2.15;;;;;;;;;;4943212;28;20324;-54
2023/08/25 09:31:28;;;;;;;4.80;2.30;;;;;;;;;;4953459;28;20212;-53
2023/08/25 09:34:14;;;;;;;3.85;2.00;;;;;;;;;;4943590;28;20807;-51
2023/08/25 09:36:51;;;;;;;2.85;1.80;;;;;;;;;;4936411;28;20705;-54
2023/08/25 09:39:19;;;;;;;10.32;2.20;;;;;;;;;;4945812;28;20247;-55
2023/08/25 09:41:47;;;;;;;3.60;2.10;;;;;;;;;;4942203;28;20247;-53
2023/08/25 09:44:18;;;;;;;5.55;1.75;;;;;;;;;;4944083;28;20287;-54
2023/08/25 09:46:45;;;;;;;3.47;1.98;;;;;;;;;;4940266;28;20222;-53
2023/08/25 09:49:14;;;;;;;9.80;2.38;;;;;;;;;;4955079;28;20222;-55
2023/08/25 09:51:41;;;;;;;3.53;2.40;;;;;;;;;;4950425;28;20236;-54
2023/08/25 09:54:12;;;;;;;4.63;2.30;;;;;;;;;;4937032;28;20230;-54
2023/08/25 09:56:40;;;;;;;12.27;2.50;;;;;;;;;;4937142;28;20267;-54
2023/08/25 09:59:09;;;;;;;3.08;2.20;;;;;;;;;;4944289;28;20210;-53
2023/08/25 10:01:38;;;;;;;5.00;2.10;;;;;;;;;;4956542;28;20214;-51
2023/08/25 10:04:09;;;;;;;2.70;2.10;;;;;;;;;;4947392;28;20539;-53
2023/08/25 10:06:37;;;;;;;6.18;2.38;;;;;;;;;;4936908;28;20628;-55
2023/08/25 10:09:08;;;;;;;3.67;2.00;;;;;;;;;;4943260;28;20602;-55
2023/08/25 10:11:40;;;;;;;3.35;1.73;;;;;;;;;;4945742;28;20212;-51
2023/08/25 10:14:10;;;;;;;6.13;2.08;;;;;;;;;;4943178;28;20203;-49
2023/08/25 10:16:41;;;;;;;4.45;2.10;;;;;;;;;;4953028;28;20222;-55
2023/08/25 10:19:13;;;;;;;5.65;1.88;;;;;;;;;;4942137;28;20231;-51
2023/08/25 10:21:44;;;;;;;3.10;1.80;;;;;;;;;;4945001;28;20196;-54
2023/08/25 10:24:14;;;;;;;5.13;1.90;;;;;;;;;;4949943;28;20653;-53
2023/08/25 10:26:44;;;;;;;5.22;1.85;;;;;;;;;;4936608;28;20266;-54
2023/08/25 10:29:12;;;;;;;7.07;2.13;;;;;;;;;;4972762;28;20227;-55
2023/08/25 10:31:59;;;;;;;4.20;1.88;;;;;;;;;;4944302;28;20200;-51
2023/08/25 10:34:32;;;;;;;4.22;2.15;;;;;;;;;;4944389;28;20199;-55
2023/08/25 10:37:07;;;;;;;10.20;2.20;;;;;;;;;;4936323;28;20200;-58
2023/08/25 10:39:56;;;;;;;5.05;2.67;;;;;;;;;;4944991;28;20241;-53
2023/08/25 10:42:26;;;;;;;4.95;2.03;;;;;;;;;;4937830;28;20220;-50
2023/08/25 10:44:55;;;;;;;6.50;2.28;;;;;;;;;;4944308;28;20256;-53
2023/08/25 10:47:23;;;;;;;3.92;1.90;;;;;;;;;;4936012;28;20215;-49
2023/08/25 10:50:00;;;;;;;5.32;2.22;;;;;;;;;;4946586;28;20200;-49
2023/08/25 10:52:27;;;;;;;3.10;2.00;;;;;;;;;;4943582;28;20301;-50
2023/08/25 10:54:55;;;;;;;6.78;1.90;;;;;;;;;;4943996;28;20200;-50
2023/08/25 10:57:26;;;;;;;3.03;2.17;;;;;;;;;;4949034;28;20215;-51
2023/08/25 10:59:56;;;;;;;3.85;2.17;;;;;;;;;;4946437;28;20199;-54
2023/08/25 11:02:37;;;;;;;5.00;2.20;;;;;;;;;;4940025;28;20224;-55
2023/08/25 11:05:33;;;;;;;3.33;2.10;;;;;;;;;;4943454;28;20196;-51
2023/08/25 11:08:04;;;;;;;3.08;2.08;;;;;;;;;;4946140;28;20211;-53
2023/08/25 11:10:33;;;;;;;3.80;2.30;;;;;;;;;;4955603;28;20210;-55
2023/08/25 11:13:12;;;;;;;2.88;2.05;;;;;;;;;;4939215;28;20203;-55
2023/08/25 11:15:40;;;;;;;4.18;1.98;;;;;;;;;;4942597;28;20575;-54
2023/08/25 11:18:11;;;;;;;5.45;1.92;;;;;;;;;;4961868;28;20262;-53
2023/08/25 11:20:45;;;;;;;7.38;2.00;;;;;;;;;;4954140;28;20563;-53
2023/08/25 11:23:12;;;;;;;3.78;1.90;;;;;;;;;;4938826;28;20222;-52
2023/08/25 11:25:47;;;;;;;3.92;2.08;;;;;;;;;;4949280;28;20569;-50
2023/08/25 11:28:14;;;;;;;7.18;2.72;;;;;;;;;;4935525;28;20208;-50
2023/08/25 11:30:41;;;;;;;5.40;2.35;;;;;;;;;;4941458;28;20204;-49
2023/08/25 11:33:09;;;;;;;3.70;2.20;;;;;;;;;;4934403;28;20216;-50
2023/08/25 11:35:36;;;;;;;5.93;2.60;;;;;;;;;;4945227;28;20220;-51
2023/08/25 11:38:03;;;;;;;5.80;2.67;;;;;;;;;;4939128;28;20227;-49
2023/08/25 11:40:31;;;;;;;5.30;2.40;;;;;;;;;;4946376;28;20228;-54
2023/08/25 11:42:58;;;;;;;4.03;2.15;;;;;;;;;;4939096;28;20232;-51
2023/08/25 11:45:28;;;;;;;3.28;1.98;;;;;;;;;;4949458;28;20206;-48
2023/08/25 11:47:55;;;;;;;3.33;2.33;;;;;;;;;;4939408;28;20200;-48
2023/08/25 11:50:25;;;;;;;4.72;2.10;;;;;;;;;;4941347;28;20568;-49
2023/08/25 11:52:54;;;;;;;3.67;1.88;;;;;;;;;;4939137;28;20211;-49
2023/08/25 11:55:32;;;;;;;6.57;1.90;;;;;;;;;;4949654;28;20207;-49
2023/08/25 11:58:06;;;;;;;4.13;2.30;;;;;;;;;;4939578;28;20550;-50
2023/08/25 12:00:39;;;;;;;4.50;2.47;;;;;;;;;;4941377;28;20283;-48
2023/08/25 12:03:07;;;;;;;7.32;2.35;;;;;;;;;;4939083;28;20231;-55
2023/08/25 12:05:37;;;;;;;4.07;2.30;;;;;;;;;;4949367;28;20230;-49
2023/08/25 12:08:05;;;;;;;5.07;2.58;;;;;;;;;;4937629;28;20607;-51
2023/08/25 12:10:35;;;;;;;4.10;2.40;;;;;;;;;;4955682;28;20204;-48
2023/08/25 12:13:03;;;;;;;4.72;2.42;;;;;;;;;;4938210;28;20222;-50
2023/08/25 12:15:41;;;;;;;7.13;2.00;;;;;;;;;;4948917;28;20617;-48
2023/08/25 12:18:12;;;;;;;5.50;2.28;;;;;;;;;;4938441;28;20207;-54
2023/08/25 12:20:43;;;;;;;6.57;2.30;;;;;;;;;;4940874;28;20260;-56
2023/08/25 12:23:10;;;;;;;5.63;2.33;;;;;;;;;;4938707;28;20703;-56
2023/08/25 12:25:37;;;;;;;4.03;2.25;;;;;;;;;;4949922;28;20207;-57
2023/08/25 12:28:05;;;;;;;4.75;2.40;;;;;;;;;;4947284;28;20210;-56
2023/08/25 12:30:32;;;;;;;4.32;2.55;;;;;;;;;;4945932;28;20212;-48
2023/08/25 12:32:59;;;;;;;3.47;2.40;;;;;;;;;;4938891;28;20295;-54
2023/08/25 12:35:27;;;;;;;8.25;1.90;;;;;;;;;;4948174;28;20214;-49
2023/08/25 12:37:54;;;;;;;6.32;2.53;;;;;;;;;;4939027;28;20243;-51
2023/08/25 12:40:22;;;;;;;4.40;2.33;;;;;;;;;;4946130;28;20223;-49
2023/08/25 12:42:53;;;;;;;5.57;2.47;;;;;;;;;;4938425;28;20303;-52
2023/08/25 12:45:22;;;;;;;7.50;2.33;;;;;;;;;;4939083;28;20661;-56
2023/08/25 12:47:50;;;;;;;3.45;2.00;;;;;;;;;;4964040;28;20628;-56
2023/08/25 12:50:18;;;;;;;7.05;2.58;;;;;;;;;;4948902;28;20228;-55
2023/08/25 12:52:45;;;;;;;4.15;2.38;;;;;;;;;;4966475;28;20306;-56
2023/08/25 12:55:14;;;;;;;4.07;2.35;;;;;;;;;;4950273;28;20232;-56
2023/08/25 12:57:51;;;;;;;4.35;2.45;;;;;;;;;;4960550;28;20587;-55
2023/08/25 13:00:19;;;;;;;4.70;2.45;;;;;;;;;;4966254;28;20225;-54
2023/08/25 13:02:46;;;;;;;5.93;2.55;;;;;;;;;;4952550;28;20236;-52
2023/08/25 13:05:16;;;;;;;6.75;2.78;;;;;;;;;;4946637;28;20299;-55
2023/08/25 13:07:43;;;;;;;4.20;2.05;;;;;;;;;;4940002;28;20351;-58
2023/08/25 13:10:11;;;;;;;6.22;2.65;;;;;;;;;;4956018;28;20287;-55
2023/08/25 13:12:38;;;;;;;7.97;2.60;;;;;;;;;;4946251;28;20310;-56
2023/08/25 13:15:09;;;;;;;3.30;2.38;;;;;;;;;;4944855;28;20219;-57
2023/08/25 13:17:36;;;;;;;6.07;2.58;;;;;;;;;;4953844;28;20314;-57
2023/08/25 13:20:05;;;;;;;6.82;2.88;;;;;;;;;;4939079;28;20303;-55
2023/08/25 13:22:32;;;;;;;5.10;2.47;;;;;;;;;;4940328;28;20235;-56
2023/08/25 13:25:00;;;;;;;4.50;2.45;;;;;;;;;;4943135;28;20227;-54
2023/08/25 13:27:28;;;;;;;10.73;2.78;;;;;;;;;;4963846;28;20219;-56
2023/08/25 13:29:55;;;;;;;4.72;2.35;;;;;;;;;;4938913;28;20721;-56
2023/08/25 13:32:22;;;;;;;4.85;2.53;;;;;;;;;;4944689;28;20776;-56
2023/08/25 13:34:49;;;;;;;9.05;3.10;;;;;;;;;;4955785;28;20693;-54
2023/08/25 13:37:17;;;;;;;7.30;2.78;;;;;;;;;;4941989;28;20224;-53
2023/08/25 13:39:44;;;;;;;4.65;2.63;;;;;;;;;;4938316;28;20740;-56
2023/08/25 13:42:11;;;;;;;6.18;2.75;;;;;;;;;;4941599;28;20230;-53
2023/08/25 13:44:39;;;;;;;5.60;2.40;;;;;;;;;;4949056;28;20239;-55
2023/08/25 13:47:09;;;;;;;5.82;2.83;;;;;;;;;;4966942;28;20317;-52
2023/08/25 13:49:36;;;;;;;4.60;2.63;;;;;;;;;;4944728;28;20236;-56
2023/08/25 13:52:04;;;;;;;5.90;2.63;;;;;;;;;;4937000;28;20356;-55
2023/08/25 13:54:32;;;;;;;5.88;2.60;;;;;;;;;;4937026;28;20233;-54
2023/08/25 13:56:59;;;;;;;4.07;2.17;;;;;;;;;;4945263;28;20224;-57
2023/08/25 13:59:27;;;;;;;5.15;3.10;;;;;;;;;;4963525;28;20587;-55
2023/08/25 14:01:54;;;;;;;5.80;3.22;;;;;;;;;;4947778;28;20219;-51
2023/08/25 14:04:22;;;;;;;12.85;3.33;;;;;;;;;;4936228;28;20227;-55
2023/08/25 14:06:49;;;;;;;6.35;3.08;;;;;;;;;;4946061;28;20231;-55
2023/08/25 14:09:17;;;;;;;7.55;3.35;;;;;;;;;;4935957;28;20232;-54
2023/08/25 14:11:44;;;;;;;4.65;2.90;;;;;;;;;;4943356;28;20719;-51
2023/08/25 14:14:11;;;;;;;6.00;2.92;;;;;;;;;;4936521;28;20224;-52
2023/08/25 14:16:39;;;;;;;5.47;2.70;;;;;;;;;;4943334;28;20223;-55
2023/08/25 14:19:07;;;;;;;8.55;3.45;;;;;;;;;;4944747;28;20232;-54
2023/08/25 14:21:34;;;;;;;8.52;3.20;;;;;;;;;;4937232;28;20275;-55
2023/08/25 14:24:01;;;;;;;7.45;2.97;;;;;;;;;;4936058;28;20254;-55
2023/08/25 14:26:28;;;;;;;5.15;3.08;;;;;;;;;;4945503;28;20357;-56
2023/08/25 14:28:55;;;;;;;8.68;3.28;;;;;;;;;;4935472;28;20311;-54
2023/08/25 14:31:22;;;;;;;6.43;3.17;;;;;;;;;;4937816;28;20299;-53
2023/08/25 14:33:50;;;;;;;3.67;2.50;;;;;;;;;;4939752;28;20295;-54
2023/08/25 14:36:17;;;;;;;5.88;3.25;;;;;;;;;;4945540;28;20306;-55
2023/08/25 14:38:44;;;;;;;6.93;2.80;;;;;;;;;;4949158;28;20239;-58
2023/08/25 14:41:11;;;;;;;4.50;2.90;;;;;;;;;;4954939;28;20638;-59
2023/08/25 14:43:38;;;;;;;5.50;3.05;;;;;;;;;;4941377;28;20701;-58
2023/08/25 14:46:05;;;;;;;6.55;3.17;;;;;;;;;;4944567;28;20274;-59
2023/08/25 14:48:33;;;;;;;5.90;2.97;;;;;;;;;;4938941;28;20251;-54
2023/08/25 14:51:01;;;;;;;7.38;2.95;;;;;;;;;;4952131;28;20568;-53
2023/08/25 14:53:28;;;;;;;8.85;2.78;;;;;;;;;;4948563;29;20227;-51